createdAt,value
2023-02-16T00:01:17.062Z,57.53
2023-02-16T00:03:28.459Z,57.38
2023-02-16T00:05:34.958Z,57.74
2023-02-16T00:07:36.523Z,57.55
2023-02-16T00:09:38.164Z,57.53
2023-02-16T00:12:02.562Z,58.11
2023-02-16T00:14:07.143Z,57.24
2023-02-16T00:16:14.613Z,57.65
2023-02-16T00:18:19.235Z,57.37
2023-02-16T00:20:21.037Z,57.82
2023-02-16T00:22:22.575Z,57.53
2023-02-16T00:24:28.885Z,57.34
2023-02-16T00:26:34.149Z,57.14
2023-02-16T00:28:38.474Z,58.09
2023-02-16T00:30:40.261Z,57.14
2023-02-16T00:32:42.215Z,57.48
2023-02-16T00:34:45.545Z,58.05
2023-02-16T00:36:47.076Z,57.22
2023-02-16T00:38:48.685Z,58.00
2023-02-16T00:40:50.431Z,57.71
2023-02-16T00:42:52.323Z,57.38
2023-02-16T00:44:58.759Z,57.75
2023-02-16T00:47:19.955Z,57.97
2023-02-16T00:49:22.876Z,57.76
2023-02-16T00:51:26.283Z,57.71
2023-02-16T00:53:37.316Z,57.48
2023-02-16T00:55:43.626Z,57.57
2023-02-16T00:57:52.032Z,57.73
2023-02-16T01:00:19.792Z,57.75
2023-02-16T01:02:22.637Z,58.34
2023-02-16T01:04:24.542Z,57.47
2023-02-16T01:06:44.734Z,57.54
2023-02-16T01:09:04.612Z,57.64
2023-02-16T01:11:10.292Z,57.57
2023-02-16T01:13:15.420Z,58.07
2023-02-16T01:15:22.502Z,58.01
2023-02-16T01:17:25.353Z,58.20
2023-02-16T01:19:28.880Z,57.82
2023-02-16T01:21:30.460Z,58.33
2023-02-16T01:23:32.047Z,57.70
2023-02-16T01:25:34.191Z,58.22
2023-02-16T01:27:39.709Z,57.67
2023-02-16T01:29:41.425Z,57.55
2023-02-16T01:31:44.180Z,58.15
2023-02-16T01:33:45.906Z,57.97
2023-02-16T01:35:50.200Z,58.16
2023-02-16T01:37:51.970Z,57.66
2023-02-16T01:39:53.485Z,57.68
2023-02-16T01:42:11.731Z,57.84
2023-02-16T01:44:23.526Z,57.38
2023-02-16T01:46:53.122Z,58.04
2023-02-16T01:48:56.617Z,58.02
2023-02-16T01:51:07.278Z,57.45
2023-02-16T01:53:20.937Z,58.12
2023-02-16T01:55:27.435Z,58.45
2023-02-16T01:57:44.818Z,58.20
2023-02-16T01:59:49.971Z,58.01
2023-02-16T02:01:59.884Z,57.79
2023-02-16T02:04:21.322Z,57.65
2023-02-16T02:06:32.872Z,58.63
2023-02-16T02:08:58.458Z,57.92
2023-02-16T02:11:26.102Z,57.78
2023-02-16T02:13:52.425Z,58.31
2023-02-16T02:15:58.569Z,57.39
2023-02-16T02:18:01.563Z,57.96
2023-02-16T02:20:15.419Z,58.45
2023-02-16T02:23:12.772Z,58.18
2023-02-16T02:25:28.263Z,58.37
2023-02-16T02:27:57.444Z,58.44
2023-02-16T02:30:23.074Z,58.07
2023-02-16T02:32:59.479Z,57.82
2023-02-16T02:35:22.794Z,58.28
2023-02-16T02:37:29.766Z,58.02
2023-02-16T02:39:56.716Z,58.10
2023-02-16T02:42:10.865Z,57.80
2023-02-16T02:44:23.986Z,58.17
2023-02-16T02:46:30.530Z,58.00
2023-02-16T02:48:34.602Z,58.13
2023-02-16T02:51:11.220Z,57.66
2023-02-16T02:53:15.920Z,57.99
2023-02-16T02:55:37.656Z,57.11
2023-02-16T02:58:04.050Z,57.99
2023-02-16T03:00:24.785Z,57.53
2023-02-16T03:02:28.765Z,57.08
2023-02-16T03:04:34.116Z,58.13
2023-02-16T03:06:43.899Z,57.28
2023-02-16T03:08:50.118Z,58.00
2023-02-16T03:11:30.592Z,57.43
2023-02-16T03:13:42.373Z,57.90
2023-02-16T03:15:46.938Z,57.65
2023-02-16T03:18:07.776Z,57.49
2023-02-16T03:20:32.424Z,57.45
2023-02-16T03:22:54.355Z,57.46
2023-02-16T03:25:14.405Z,57.13
2023-02-16T03:27:57.256Z,56.76
2023-02-16T03:30:03.417Z,57.44
2023-02-16T03:32:08.135Z,57.21
2023-02-16T03:34:12.692Z,57.83
2023-02-16T03:36:14.503Z,57.49
2023-02-16T03:38:16.508Z,57.63
2023-02-16T03:40:30.942Z,57.26
2023-02-16T03:42:32.707Z,57.02
2023-02-16T03:44:34.359Z,57.25
2023-02-16T03:46:35.956Z,56.75
2023-02-16T03:48:37.560Z,57.20
2023-02-16T03:50:39.269Z,56.85
2023-02-16T03:52:40.958Z,57.37
2023-02-16T03:54:45.546Z,56.81
2023-02-16T03:56:47.011Z,57.47
2023-02-16T03:58:48.483Z,57.35
2023-02-16T04:00:51.222Z,56.68
2023-02-16T04:02:52.885Z,57.47
2023-02-16T04:04:54.607Z,56.86
2023-02-16T04:06:56.192Z,56.65
2023-02-16T04:08:57.889Z,56.39
2023-02-16T04:11:00.374Z,56.99
2023-02-16T04:13:02.202Z,56.91
2023-02-16T04:15:09.067Z,57.23
2023-02-16T04:17:10.634Z,56.96
2023-02-16T04:19:12.202Z,56.58
2023-02-16T04:21:13.694Z,56.70
2023-02-16T04:23:15.264Z,56.76
2023-02-16T04:25:20.901Z,56.43
2023-02-16T04:27:22.736Z,56.71
2023-02-16T04:29:24.291Z,56.93
2023-02-16T04:31:25.954Z,56.82
2023-02-16T04:33:28.199Z,57.08
2023-02-16T04:35:30.126Z,56.83
2023-02-16T04:37:31.777Z,56.69
2023-02-16T04:39:33.499Z,56.84
2023-02-16T04:41:35.011Z,56.80
2023-02-16T04:43:36.787Z,56.62
2023-02-16T04:45:38.313Z,56.60
2023-02-16T04:47:40.396Z,57.24
2023-02-16T04:49:42.136Z,56.59
2023-02-16T04:51:43.779Z,57.38
2023-02-16T04:53:45.421Z,56.67
2023-02-16T04:55:50.781Z,56.87
2023-02-16T04:57:52.485Z,56.60
2023-02-16T05:00:03.037Z,56.93
2023-02-16T05:02:05.038Z,57.06
2023-02-16T05:04:06.815Z,56.61
2023-02-16T05:06:08.516Z,56.60
2023-02-16T05:08:10.235Z,57.15
2023-02-16T05:10:11.851Z,56.65
2023-02-16T05:12:31.998Z,56.82
2023-02-16T05:14:45.478Z,56.88
2023-02-16T05:16:47.210Z,56.61
2023-02-16T05:18:48.866Z,56.86
2023-02-16T05:21:08.878Z,56.79
2023-02-16T05:23:10.514Z,56.82
2023-02-16T05:25:12.294Z,56.63
2023-02-16T05:27:19.865Z,56.74
2023-02-16T05:29:25.770Z,56.77
2023-02-16T05:31:30.095Z,57.00
2023-02-16T05:33:31.814Z,56.93
2023-02-16T05:35:34.965Z,56.82
2023-02-16T05:37:36.674Z,56.81
2023-02-16T05:39:38.416Z,56.96
2023-02-16T05:41:40.057Z,56.63
2023-02-16T05:43:41.692Z,56.81
2023-02-16T05:45:43.475Z,57.01
2023-02-16T05:47:47.167Z,56.66
2023-02-16T05:49:51.462Z,56.57
2023-02-16T05:51:53.167Z,56.51
2023-02-16T05:53:55.883Z,56.76
2023-02-16T05:55:57.615Z,56.77
2023-02-16T05:57:59.307Z,56.61
2023-02-16T06:00:01.182Z,56.71
2023-02-16T06:02:02.726Z,56.82
2023-02-16T06:04:04.892Z,57.11
2023-02-16T06:06:06.772Z,56.59
2023-02-16T06:08:11.721Z,56.61
2023-02-16T06:10:21.060Z,56.76
2023-02-16T06:12:22.703Z,56.95
2023-02-16T06:14:24.428Z,57.07
2023-02-16T06:16:28.077Z,56.49
2023-02-16T06:18:29.682Z,56.52
2023-02-16T06:20:31.459Z,56.58
2023-02-16T06:22:35.896Z,57.05
2023-02-16T06:24:38.560Z,56.45
2023-02-16T06:26:40.307Z,56.60
2023-02-16T06:28:42.605Z,56.87
2023-02-16T06:30:44.368Z,56.68
2023-02-16T06:32:49.328Z,57.10
2023-02-16T06:34:53.753Z,56.66
2023-02-16T06:36:55.462Z,56.78
2023-02-16T06:38:57.227Z,56.95
2023-02-16T06:41:01.004Z,56.89
2023-02-16T06:43:02.929Z,57.17
2023-02-16T06:45:04.943Z,56.95
2023-02-16T06:47:06.709Z,56.91
2023-02-16T06:49:12.599Z,57.24
2023-02-16T06:51:20.358Z,57.04
2023-02-16T06:53:21.892Z,56.88
2023-02-16T06:55:23.593Z,56.91
2023-02-16T06:57:25.126Z,57.42
2023-02-16T06:59:26.771Z,57.27
2023-02-16T07:01:29.109Z,57.28
2023-02-16T07:03:30.673Z,57.38
2023-02-16T07:05:35.436Z,57.16
2023-02-16T07:07:37.029Z,57.78
2023-02-16T07:09:38.700Z,57.66
2023-02-16T07:11:40.863Z,57.76
2023-02-16T07:13:42.710Z,57.89
2023-02-16T07:15:44.425Z,58.06
2023-02-16T07:17:46.131Z,57.95
2023-02-16T07:19:47.688Z,58.00
2023-02-16T07:21:49.395Z,57.62
2023-02-16T07:23:51.124Z,58.24
2023-02-16T07:25:52.779Z,57.58
2023-02-16T07:27:57.030Z,57.32
2023-02-16T07:30:02.032Z,57.78
2023-02-16T07:32:04.354Z,57.92
2023-02-16T07:34:06.073Z,57.89
2023-02-16T07:36:09.185Z,58.03
2023-02-16T07:38:11.108Z,58.08
2023-02-16T07:40:13.412Z,57.76
2023-02-16T07:42:18.072Z,57.83
2023-02-16T07:44:22.290Z,58.16
2023-02-16T07:46:24.314Z,57.99
2023-02-16T07:48:34.789Z,58.07
2023-02-16T07:50:37.571Z,57.93
2023-02-16T07:52:39.448Z,57.92
2023-02-16T07:54:40.992Z,58.60
2023-02-16T07:56:42.729Z,58.21
2023-02-16T07:58:47.454Z,58.09
2023-02-16T08:00:49.154Z,58.21
2023-02-16T08:02:50.875Z,58.39
2023-02-16T08:04:53.490Z,58.03
2023-02-16T08:06:55.088Z,58.17
2023-02-16T08:08:59.316Z,58.16
2023-02-16T08:11:07.805Z,58.14
2023-02-16T08:13:09.452Z,58.80
2023-02-16T08:15:13.543Z,58.32
2023-02-16T08:17:16.192Z,58.84
2023-02-16T08:19:17.731Z,58.99
2023-02-16T08:21:21.907Z,58.25
2023-02-16T08:23:23.665Z,58.15
2023-02-16T08:25:25.778Z,58.25
2023-02-16T08:27:27.612Z,58.85
2023-02-16T08:29:33.577Z,58.11
2023-02-16T08:31:38.430Z,58.71
2023-02-16T08:33:40.562Z,58.50
2023-02-16T08:35:43.106Z,58.51
2023-02-16T08:37:47.528Z,58.95
2023-02-16T08:39:49.276Z,58.76
2023-02-16T08:41:51.139Z,58.18
2023-02-16T08:43:53.197Z,58.79
2023-02-16T08:45:55.001Z,58.78
2023-02-16T08:47:57.688Z,59.20
2023-02-16T08:49:59.083Z,58.45
2023-02-16T08:52:01.777Z,59.22
2023-02-16T08:54:08.715Z,58.97
2023-02-16T08:56:11.168Z,58.91
2023-02-16T08:58:15.788Z,58.50
2023-02-16T09:00:35.528Z,58.31
2023-02-16T09:02:37.814Z,59.21
2023-02-16T09:04:39.332Z,59.08
2023-02-16T09:06:44.537Z,58.52
2023-02-16T09:08:50.446Z,59.00
2023-02-16T09:10:52.498Z,58.83
2023-02-16T09:12:54.552Z,58.56
2023-02-16T09:14:56.078Z,58.83
2023-02-16T09:16:59.231Z,58.67
2023-02-16T09:19:01.790Z,59.15
2023-02-16T09:21:11.875Z,59.27
2023-02-16T09:23:13.469Z,58.98
2023-02-16T09:25:16.938Z,59.20
2023-02-16T09:27:20.197Z,59.07
2023-02-16T09:29:21.917Z,59.06
2023-02-16T09:31:28.826Z,58.67
2023-02-16T09:33:30.478Z,59.13
2023-02-16T09:35:32.776Z,58.82
2023-02-16T09:37:34.375Z,59.11
2023-02-16T09:39:39.662Z,59.22
2023-02-16T09:41:51.551Z,58.74
2023-02-16T09:44:21.004Z,59.22
2023-02-16T09:46:25.268Z,58.73
2023-02-16T09:48:45.852Z,59.25
2023-02-16T09:50:54.596Z,58.94
2023-02-16T09:53:20.420Z,59.32
2023-02-16T09:55:24.999Z,58.99
2023-02-16T09:57:46.928Z,59.20
2023-02-16T10:00:29.425Z,59.09
2023-02-16T10:02:55.386Z,59.34
2023-02-16T10:05:15.202Z,59.00
2023-02-16T10:07:54.168Z,59.11
2023-02-16T10:09:57.555Z,58.98
2023-02-16T10:12:19.564Z,59.87
2023-02-16T10:14:41.604Z,60.10
2023-02-16T10:16:52.793Z,59.87
2023-02-16T10:18:56.368Z,60.69
2023-02-16T10:21:09.349Z,60.87
2023-02-16T10:23:32.955Z,61.46
2023-02-16T10:25:52.513Z,61.69
2023-02-16T10:28:16.225Z,63.13
2023-02-16T10:30:20.949Z,62.06
2023-02-16T10:32:29.102Z,62.49
2023-02-16T10:34:42.811Z,62.81
2023-02-16T10:36:53.800Z,62.45
2023-02-16T10:39:22.197Z,62.89
2023-02-16T10:41:31.837Z,62.17
2023-02-16T10:44:12.103Z,61.85
2023-02-16T10:46:30.955Z,61.57
2023-02-16T10:48:34.246Z,60.67
2023-02-16T10:50:38.849Z,60.59
2023-02-16T10:52:42.509Z,60.14
2023-02-16T10:54:44.282Z,59.74
2023-02-16T10:56:52.645Z,59.07
2023-02-16T10:58:54.893Z,59.12
2023-02-16T11:01:08.456Z,58.47
2023-02-16T11:03:12.797Z,58.21
2023-02-16T11:05:27.235Z,57.46
2023-02-16T11:07:31.364Z,57.59
2023-02-16T11:09:33.094Z,57.19
2023-02-16T11:11:40.113Z,56.78
2023-02-16T11:13:42.007Z,56.94
2023-02-16T11:15:43.841Z,56.37
2023-02-16T11:17:58.213Z,55.78
2023-02-16T11:20:05.754Z,55.21
2023-02-16T11:22:25.954Z,54.66
2023-02-16T11:24:33.041Z,54.94
2023-02-16T11:26:34.590Z,54.96
2023-02-16T11:28:41.066Z,54.69
2023-02-16T11:30:43.389Z,54.30
2023-02-16T11:32:45.151Z,53.98
2023-02-16T11:34:49.885Z,53.45
2023-02-16T11:36:53.201Z,53.44
2023-02-16T11:39:09.295Z,51.97
2023-02-16T11:41:12.830Z,52.08
2023-02-16T11:43:18.479Z,52.05
2023-02-16T11:45:36.581Z,51.68
2023-02-16T11:47:42.090Z,52.22
2023-02-16T11:49:43.566Z,52.05
2023-02-16T11:51:45.128Z,52.07
2023-02-16T11:54:00.434Z,51.82
2023-02-16T11:56:17.256Z,51.63
2023-02-16T11:58:28.376Z,51.70
2023-02-16T12:00:31.763Z,51.95
2023-02-16T12:02:39.388Z,51.35
2023-02-16T12:05:14.565Z,51.56
2023-02-16T12:07:23.199Z,51.91
2023-02-16T12:09:42.916Z,51.55
2023-02-16T12:12:08.296Z,52.01
2023-02-16T12:14:23.970Z,51.92
2023-02-16T12:16:40.641Z,52.11
2023-02-16T12:18:58.466Z,52.01
2023-02-16T12:21:45.454Z,52.00
2023-02-16T12:24:13.929Z,52.05
2023-02-16T12:26:39.483Z,52.12
2023-02-16T12:28:51.102Z,52.15
2023-02-16T12:31:34.980Z,52.00
2023-02-16T12:34:10.214Z,51.71
2023-02-16T12:36:50.602Z,51.69
2023-02-16T12:39:31.207Z,51.52
2023-02-16T12:41:56.049Z,51.27
2023-02-16T12:44:06.614Z,51.59
2023-02-16T12:46:17.601Z,51.52
2023-02-16T12:48:40.323Z,51.14
2023-02-16T12:51:04.967Z,51.36
2023-02-16T12:53:18.692Z,51.33
2023-02-16T12:55:43.141Z,51.41
2023-02-16T12:58:13.805Z,51.29
2023-02-16T13:00:30.899Z,51.34
2023-02-16T13:02:42.517Z,51.22
2023-02-16T13:04:53.902Z,50.99
2023-02-16T13:07:06.184Z,50.91
2023-02-16T13:09:36.350Z,50.78
2023-02-16T13:11:49.341Z,49.82
2023-02-16T13:13:56.864Z,49.96
2023-02-16T13:16:29.159Z,49.59
2023-02-16T13:18:36.046Z,49.77
2023-02-16T13:20:41.360Z,49.66
2023-02-16T13:23:00.775Z,49.01
2023-02-16T13:25:09.976Z,49.69
2023-02-16T13:27:27.738Z,49.54
2023-02-16T13:29:45.288Z,49.43
2023-02-16T13:32:14.762Z,49.13
2023-02-16T13:34:47.522Z,48.84
2023-02-16T13:37:35.912Z,48.77
2023-02-16T13:39:57.681Z,48.74
2023-02-16T13:42:16.533Z,48.89
2023-02-16T13:44:28.214Z,48.47
2023-02-16T13:46:37.950Z,48.53
2023-02-16T13:48:47.355Z,48.45
2023-02-16T13:50:57.470Z,48.39
2023-02-16T13:53:19.181Z,47.97
2023-02-16T13:55:30.158Z,47.96
2023-02-16T13:57:50.432Z,47.69
2023-02-16T14:00:00.774Z,47.79
2023-02-16T14:02:03.512Z,47.94
2023-02-16T14:04:11.765Z,47.76
2023-02-16T14:06:37.989Z,47.38
2023-02-16T14:08:40.389Z,47.56
2023-02-16T14:10:53.082Z,47.03
2023-02-16T14:12:54.878Z,47.89
2023-02-16T14:15:00.679Z,47.48
2023-02-16T14:17:23.469Z,46.86
2023-02-16T14:19:26.681Z,47.22
2023-02-16T14:21:37.761Z,47.36
2023-02-16T14:23:39.522Z,47.32
2023-02-16T14:25:41.344Z,47.33
2023-02-16T14:27:58.800Z,47.19
2023-02-16T14:30:12.612Z,47.21
2023-02-16T14:32:31.433Z,47.07
2023-02-16T14:34:41.310Z,47.26
2023-02-16T14:37:17.141Z,47.27
2023-02-16T14:39:22.825Z,47.43
2023-02-16T14:41:33.681Z,47.14
2023-02-16T14:43:49.012Z,47.21
2023-02-16T14:45:51.053Z,47.32
2023-02-16T14:48:26.797Z,47.00
2023-02-16T14:50:51.044Z,46.45
2023-02-16T14:53:17.555Z,46.67
2023-02-16T14:55:52.022Z,47.15
2023-02-16T14:57:57.210Z,46.44
2023-02-16T15:00:33.725Z,46.92
2023-02-16T15:02:40.824Z,47.19
2023-02-16T15:04:46.089Z,47.35
2023-02-16T15:06:50.731Z,47.21
2023-02-16T15:08:57.094Z,47.24
2023-02-16T15:10:59.532Z,47.25
2023-02-16T15:13:03.417Z,47.22
2023-02-16T15:15:10.255Z,47.35
2023-02-16T15:17:39.486Z,47.16
2023-02-16T15:19:42.194Z,47.44
2023-02-16T15:21:44.722Z,47.43
2023-02-16T15:23:52.198Z,47.36
2023-02-16T15:26:00.060Z,47.53
2023-02-16T15:28:05.595Z,47.50
2023-02-16T15:30:23.248Z,47.69
2023-02-16T15:32:24.945Z,47.67
2023-02-16T15:34:33.304Z,47.60
2023-02-16T15:36:40.328Z,47.73
2023-02-16T15:38:50.983Z,47.60
2023-02-16T15:41:01.818Z,47.71
2023-02-16T15:43:10.043Z,47.86
2023-02-16T15:45:27.158Z,47.64
2023-02-16T15:47:31.008Z,47.88
2023-02-16T15:49:34.901Z,48.19
2023-02-16T15:51:38.410Z,48.03
2023-02-16T15:53:50.647Z,47.78
2023-02-16T15:55:52.605Z,48.03
2023-02-16T15:57:54.445Z,47.87
2023-02-16T16:00:04.013Z,47.98
2023-02-16T16:02:20.885Z,47.95
2023-02-16T16:04:26.375Z,48.07
2023-02-16T16:06:34.190Z,47.91
2023-02-16T16:08:35.932Z,47.90
2023-02-16T16:10:39.857Z,48.13
2023-02-16T16:12:42.180Z,48.13
2023-02-16T16:14:53.264Z,48.00
2023-02-16T16:17:07.140Z,48.04
2023-02-16T16:19:17.600Z,48.10
2023-02-16T16:21:30.899Z,48.07
2023-02-16T16:23:32.787Z,48.01
2023-02-16T16:25:34.511Z,48.30
2023-02-16T16:27:37.348Z,48.27
2023-02-16T16:29:48.208Z,48.14
2023-02-16T16:31:53.549Z,48.16
2023-02-16T16:34:04.066Z,47.99
2023-02-16T16:36:12.568Z,47.77
2023-02-16T16:38:27.894Z,48.02
2023-02-16T16:40:37.777Z,47.90
2023-02-16T16:42:39.483Z,48.22
2023-02-16T16:44:54.284Z,48.32
2023-02-16T16:46:56.061Z,48.16
2023-02-16T16:49:05.556Z,47.96
2023-02-16T16:51:27.785Z,48.12
2023-02-16T16:53:29.442Z,48.40
2023-02-16T16:55:34.122Z,48.41
2023-02-16T16:57:35.732Z,48.30
2023-02-16T16:59:38.724Z,48.37
2023-02-16T17:01:41.648Z,48.38
2023-02-16T17:03:43.420Z,48.60
2023-02-16T17:05:48.602Z,48.47
2023-02-16T17:07:51.773Z,48.53
2023-02-16T17:09:53.530Z,48.41
2023-02-16T17:11:55.720Z,48.37
2023-02-16T17:14:27.029Z,48.33
2023-02-16T17:16:32.827Z,48.48
2023-02-16T17:18:34.651Z,48.56
2023-02-16T17:20:38.953Z,48.85
2023-02-16T17:22:40.609Z,48.53
2023-02-16T17:24:42.908Z,48.57
2023-02-16T17:26:44.586Z,48.74
2023-02-16T17:28:46.028Z,48.97
2023-02-16T17:30:48.050Z,49.24
2023-02-16T17:32:55.826Z,48.73
2023-02-16T17:35:00.086Z,48.86
2023-02-16T17:37:05.502Z,48.89
2023-02-16T17:39:09.646Z,48.91
2023-02-16T17:41:26.493Z,49.11
2023-02-16T17:43:28.537Z,49.55
2023-02-16T17:45:30.203Z,49.17
2023-02-16T17:47:32.168Z,49.53
2023-02-16T17:49:33.772Z,49.33
2023-02-16T17:51:36.537Z,49.33
2023-02-16T17:53:38.276Z,49.37
2023-02-16T17:55:40.099Z,49.26
2023-02-16T17:57:41.917Z,49.37
2023-02-16T17:59:43.557Z,49.48
2023-02-16T18:01:45.628Z,49.58
2023-02-16T18:03:47.816Z,49.66
2023-02-16T18:05:49.985Z,49.53
2023-02-16T18:07:52.242Z,49.71
2023-02-16T18:09:54.710Z,49.63
2023-02-16T18:11:56.472Z,49.55
2023-02-16T18:13:58.031Z,49.71
2023-02-16T18:16:03.817Z,49.81
2023-02-16T18:18:09.081Z,49.74
2023-02-16T18:20:16.030Z,49.73
2023-02-16T18:22:17.830Z,49.86
2023-02-16T18:24:21.182Z,50.02
2023-02-16T18:26:23.678Z,49.91
2023-02-16T18:28:28.240Z,50.03
2023-02-16T18:30:33.173Z,49.94
2023-02-16T18:32:35.148Z,50.00
2023-02-16T18:34:37.481Z,50.12
2023-02-16T18:36:43.570Z,49.98
2023-02-16T18:38:48.084Z,49.97
2023-02-16T18:40:52.163Z,50.27
2023-02-16T18:42:54.025Z,50.04
2023-02-16T18:44:55.701Z,50.31
2023-02-16T18:46:58.056Z,50.38
2023-02-16T18:48:59.722Z,50.58
2023-02-16T18:51:09.711Z,50.36
2023-02-16T18:53:11.487Z,50.42
2023-02-16T18:55:25.139Z,50.45
2023-02-16T18:57:26.984Z,50.65
2023-02-16T18:59:32.949Z,50.53
2023-02-16T19:01:35.035Z,50.64
2023-02-16T19:03:36.848Z,51.07
2023-02-16T19:05:39.915Z,50.66
2023-02-16T19:07:41.766Z,50.77
2023-02-16T19:09:45.915Z,50.66
2023-02-16T19:11:47.689Z,50.80
2023-02-16T19:13:49.492Z,50.35
2023-02-16T19:16:01.632Z,50.58
2023-02-16T19:18:03.569Z,50.73
2023-02-16T19:20:11.556Z,50.90
2023-02-16T19:22:13.984Z,50.96
2023-02-16T19:24:15.567Z,51.03
2023-02-16T19:26:18.939Z,50.64
2023-02-16T19:28:21.455Z,51.05
2023-02-16T19:30:25.732Z,51.05
2023-02-16T19:32:27.399Z,50.86
2023-02-16T19:34:28.986Z,50.95
2023-02-16T19:36:34.277Z,51.00
2023-02-16T19:38:38.410Z,50.95
2023-02-16T19:40:40.111Z,51.16
2023-02-16T19:42:43.523Z,51.00
2023-02-16T19:44:45.131Z,51.21
2023-02-16T19:46:46.767Z,51.15
2023-02-16T19:48:48.813Z,51.25
2023-02-16T19:50:55.836Z,51.20
2023-02-16T19:52:58.538Z,51.39
2023-02-16T19:55:00.142Z,51.22
2023-02-16T19:57:02.909Z,51.48
2023-02-16T19:59:04.460Z,51.42
2023-02-16T20:01:11.454Z,51.32
2023-02-16T20:03:13.776Z,51.64
2023-02-16T20:05:30.862Z,51.46
2023-02-16T20:07:35.941Z,51.78
2023-02-16T20:09:37.619Z,51.32
2023-02-16T20:11:40.180Z,51.44
2023-02-16T20:13:44.598Z,51.46
2023-02-16T20:15:46.346Z,51.75
2023-02-16T20:17:48.053Z,51.71
2023-02-16T20:19:49.755Z,51.91
2023-02-16T20:21:54.683Z,51.58
2023-02-16T20:23:59.962Z,51.85
2023-02-16T20:26:10.570Z,51.70
2023-02-16T20:28:12.189Z,51.90
2023-02-16T20:30:20.403Z,51.72
2023-02-16T20:32:26.608Z,51.93
2023-02-16T20:34:28.297Z,52.03
2023-02-16T20:36:30.114Z,52.02
2023-02-16T20:38:32.853Z,51.79
2023-02-16T20:40:34.506Z,52.04
2023-02-16T20:42:36.187Z,52.10
2023-02-16T20:44:38.158Z,52.08
2023-02-16T20:46:41.165Z,52.12
2023-02-16T20:48:44.003Z,52.13
2023-02-16T20:50:45.693Z,52.19
2023-02-16T20:52:47.494Z,52.39
2023-02-16T20:54:49.046Z,52.06
2023-02-16T20:56:50.726Z,52.32
2023-02-16T20:58:54.237Z,52.37
2023-02-16T21:00:56.086Z,52.08
2023-02-16T21:02:58.053Z,52.13
2023-02-16T21:04:59.957Z,52.34
2023-02-16T21:07:01.684Z,52.33
2023-02-16T21:09:04.864Z,52.25
2023-02-16T21:11:07.531Z,52.34
2023-02-16T21:13:09.475Z,52.34
2023-02-16T21:15:11.666Z,52.17
2023-02-16T21:17:13.598Z,52.40
2023-02-16T21:19:22.799Z,52.30
2023-02-16T21:21:25.396Z,52.25
2023-02-16T21:23:27.626Z,52.34
2023-02-16T21:25:30.299Z,52.43
2023-02-16T21:27:31.963Z,52.50
2023-02-16T21:29:33.699Z,52.44
2023-02-16T21:31:35.465Z,52.34
2023-02-16T21:33:37.738Z,52.62
2023-02-16T21:35:39.458Z,52.48
2023-02-16T21:37:41.227Z,52.50
2023-02-16T21:40:04.193Z,52.21
2023-02-16T21:42:05.860Z,52.65
2023-02-16T21:44:11.204Z,52.43
2023-02-16T21:46:12.946Z,52.64
2023-02-16T21:48:33.320Z,52.37
2023-02-16T21:50:38.086Z,52.40
2023-02-16T21:52:39.769Z,52.57
2023-02-16T21:54:59.736Z,52.60
2023-02-16T21:57:01.461Z,52.51
2023-02-16T21:59:05.295Z,52.25
2023-02-16T22:01:06.963Z,52.58
2023-02-16T22:03:09.596Z,52.14
2023-02-16T22:05:12.397Z,52.64
2023-02-16T22:07:14.254Z,52.40
2023-02-16T22:09:21.642Z,52.50
2023-02-16T22:11:23.377Z,52.49
2023-02-16T22:13:25.020Z,52.44
2023-02-16T22:15:26.455Z,52.81
2023-02-16T22:17:28.135Z,52.70
2023-02-16T22:19:29.934Z,52.59
2023-02-16T22:21:31.828Z,52.83
2023-02-16T22:23:33.955Z,52.53
2023-02-16T22:25:39.935Z,52.81
2023-02-16T22:27:44.784Z,52.65
2023-02-16T22:29:46.399Z,52.48
2023-02-16T22:31:49.263Z,52.39
2023-02-16T22:34:02.864Z,52.50
2023-02-16T22:36:07.172Z,52.54
2023-02-16T22:38:09.045Z,52.67
2023-02-16T22:40:10.691Z,52.55
2023-02-16T22:42:12.449Z,52.74
2023-02-16T22:44:15.629Z,52.55
2023-02-16T22:46:17.537Z,52.49
2023-02-16T22:48:19.226Z,52.42
2023-02-16T22:50:22.884Z,52.74
2023-02-16T22:52:24.665Z,52.48
2023-02-16T22:54:26.224Z,52.96
2023-02-16T22:56:28.389Z,52.65
2023-02-16T22:58:30.078Z,52.69
2023-02-16T23:00:31.866Z,52.75
2023-02-16T23:02:33.576Z,52.57
2023-02-16T23:04:35.094Z,52.54
2023-02-16T23:06:37.102Z,52.42
2023-02-16T23:08:46.339Z,52.52
2023-02-16T23:11:01.328Z,52.39
2023-02-16T23:13:06.198Z,52.47
2023-02-16T23:15:08.066Z,52.62
2023-02-16T23:17:15.446Z,52.98
2023-02-16T23:19:20.586Z,53.13
2023-02-16T23:21:32.941Z,53.13
2023-02-16T23:23:34.771Z,53.04
2023-02-16T23:25:36.351Z,52.83
2023-02-16T23:27:37.973Z,52.73
2023-02-16T23:29:39.463Z,53.10
2023-02-16T23:31:43.329Z,52.76
2023-02-16T23:33:45.249Z,52.91
2023-02-16T23:35:46.816Z,53.29
2023-02-16T23:37:51.487Z,53.07
2023-02-16T23:39:53.091Z,53.21
2023-02-16T23:41:57.551Z,52.81
2023-02-16T23:44:01.074Z,53.07
2023-02-16T23:46:06.724Z,53.32
2023-02-16T23:48:08.605Z,53.32
2023-02-16T23:50:14.407Z,53.09
2023-02-16T23:52:17.298Z,53.12
2023-02-16T23:54:18.933Z,53.62
2023-02-16T23:56:28.065Z,53.22
2023-02-16T23:58:34.033Z,53.21
